Time;durP1;ratioP1;P1;durP2;ratioP2;P2;SDS_P1;SDS_P2;PMS_P1;PMS_P2;Temp;Humidity;BMP_temperature;BMP_pressure;BME280_temperature;BME280_humidity;BME280_pressure;Samples;Min_cycle;Max_cycle;Signal;HPM_P1;HPM_P2
2023/04/16 00:05:39;;;;;;;3.20;2.27;;;8.00;99.90;;;;;;20872018;28;20049;-80
2023/04/16 00:15:39;;;;;;;3.33;1.93;;;8.00;99.90;;;;;;20872345;28;20120;-80
2023/04/16 00:25:41;;;;;;;3.77;2.30;;;8.00;99.90;;;;;;20879708;28;20040;-80
2023/04/16 00:35:45;;;;;;;7.50;3.20;;;8.00;99.90;;;;;;20873119;28;20396;-79
2023/04/16 00:45:46;;;;;;;6.78;2.80;;;8.00;99.90;;;;;;20871215;28;20029;-79
2023/04/16 00:55:47;;;;;;;4.80;2.20;;;8.00;99.90;;;;;;20869812;28;20079;-80
2023/04/16 01:05:50;;;;;;;4.47;2.50;;;7.90;99.90;;;;;;20869547;28;20034;-80
2023/04/16 01:15:51;;;;;;;4.15;2.63;;;7.90;99.90;;;;;;20854392;28;20038;-80
2023/04/16 01:25:52;;;;;;;7.00;2.92;;;7.90;99.90;;;;;;20785401;28;20062;-80
2023/04/16 01:35:53;;;;;;;6.00;3.73;;;7.90;99.90;;;;;;20781157;28;20029;-80
2023/04/16 01:46:10;;;;;;;6.07;3.43;;;7.90;99.90;;;;;;20795784;28;20025;-80
2023/04/16 01:56:11;;;;;;;5.70;3.72;;;7.90;99.90;;;;;;20858021;28;20070;-79
2023/04/16 02:06:12;;;;;;;5.03;3.33;;;7.90;99.90;;;;;;20864876;28;20038;-80
2023/04/16 02:16:13;;;;;;;5.35;3.53;;;7.90;99.90;;;;;;20850557;28;20042;-80
2023/04/16 02:26:22;;;;;;;5.25;3.38;;;7.80;99.90;;;;;;20788257;28;20034;-80
2023/04/16 02:36:24;;;;;;;6.72;4.07;;;7.80;99.90;;;;;;20783481;28;20447;-79
2023/04/16 02:46:25;;;;;;;;;;;7.80;99.90;;;;;;20765656;28;20026;-79
2023/04/16 02:56:25;;;;;;;6.63;4.67;;;7.70;99.90;;;;;;20773440;28;19980;-80
2023/04/16 03:06:26;;;;;;;8.10;4.13;;;7.70;99.90;;;;;;20775593;28;20324;-79
2023/04/16 03:16:27;;;;;;;10.95;5.15;;;7.60;99.90;;;;;;20777244;28;20034;-80
2023/04/16 03:26:29;;;;;;;11.93;5.67;;;7.50;99.90;;;;;;20776358;28;20388;-79
2023/04/16 03:36:30;;;;;;;8.77;5.65;;;7.50;99.90;;;;;;20776504;28;20033;-79
2023/04/16 03:46:31;;;;;;;10.95;6.47;;;7.50;99.90;;;;;;20810023;28;20033;-81
2023/04/16 03:56:32;;;;;;;;;;;7.50;99.90;;;;;;20876966;28;20041;-79
2023/04/16 04:06:33;;;;;;;14.88;8.55;;;7.40;99.90;;;;;;20858864;28;20435;-81
2023/04/16 04:16:34;;;;;;;15.18;8.50;;;7.40;99.90;;;;;;20798129;28;20124;-80
2023/04/16 04:26:35;;;;;;;22.35;9.10;;;7.50;99.90;;;;;;20806440;28;20038;-81
2023/04/16 04:36:36;;;;;;;16.70;9.40;;;7.50;99.90;;;;;;20789877;28;20052;-81
2023/04/16 04:46:37;;;;;;;20.27;9.93;;;7.40;99.90;;;;;;20788593;28;20072;-81
2023/04/16 04:56:38;;;;;;;21.20;10.25;;;7.50;99.90;;;;;;20788425;28;20037;-81
2023/04/16 05:06:38;;;;;;;16.77;9.63;;;7.50;99.90;;;;;;20787959;28;20125;-81
2023/04/16 05:16:39;;;;;;;14.50;8.55;;;7.50;99.90;;;;;;20808653;28;20044;-81
2023/04/16 05:26:40;;;;;;;18.00;7.93;;;7.50;99.90;;;;;;20870452;28;20045;-80
2023/04/16 05:36:41;;;;;;;29.73;7.80;;;7.60;99.90;;;;;;20834498;28;20456;-80
2023/04/16 05:46:42;;;;;;;12.65;7.25;;;7.60;99.90;;;;;;20786680;28;20056;-81
2023/04/16 05:56:43;;;;;;;13.77;8.00;;;7.70;99.90;;;;;;20781775;28;20393;-81
2023/04/16 06:06:43;;;;;;;16.27;7.77;;;7.60;99.90;;;;;;20776791;28;20508;-79
2023/04/16 06:16:44;;;;;;;16.37;8.90;;;7.70;99.90;;;;;;20772604;28;20424;-80
2023/04/16 06:26:45;;;;;;;20.42;9.38;;;7.70;99.90;;;;;;20786956;28;20307;-80
2023/04/16 06:36:46;;;;;;;17.50;10.33;;;7.70;99.90;;;;;;20778371;28;20030;-79
2023/04/16 06:46:47;;;;;;;23.73;11.80;;;7.80;99.90;;;;;;20779059;28;20030;-79
2023/04/16 06:56:47;;;;;;;23.83;12.30;;;7.80;99.90;;;;;;20784515;28;20034;-80
2023/04/16 07:06:48;;;;;;;22.63;11.93;;;7.70;99.90;;;;;;20779223;28;20797;-80
2023/04/16 07:16:49;;;;;;;20.47;11.20;;;7.60;99.90;;;;;;20765493;28;20045;-79
2023/04/16 07:26:50;;;;;;;17.13;10.53;;;7.50;99.90;;;;;;20764547;28;20393;-80
2023/04/16 07:36:51;;;;;;;18.08;9.73;;;7.50;99.90;;;;;;20761832;28;20796;-79
2023/04/16 07:46:52;;;;;;;14.23;8.97;;;7.40;99.90;;;;;;20764153;28;20053;-79
2023/04/16 07:56:53;;;;;;;16.20;7.70;;;7.60;99.90;;;;;;20762888;28;20285;-80
2023/04/16 08:06:54;;;;;;;10.10;6.57;;;7.70;99.90;;;;;;20764691;28;20042;-79
2023/04/16 08:16:54;;;;;;;10.30;6.03;;;7.80;99.90;;;;;;20772761;28;20636;-80
2023/04/16 08:26:55;;;;;;;8.30;5.40;;;7.80;99.90;;;;;;20778898;28;20030;-79
2023/04/16 08:36:56;;;;;;;7.70;5.18;;;7.80;99.90;;;;;;20785091;28;20030;-79
2023/04/16 08:46:57;;;;;;;8.20;5.87;;;8.00;99.90;;;;;;20785507;28;20030;-79
2023/04/16 08:56:59;;;;;;;9.20;6.35;;;8.00;99.90;;;;;;20781653;28;20036;-79
2023/04/16 09:07:01;;;;;;;11.55;6.82;;;8.00;99.90;;;;;;20777389;28;20038;-79
2023/04/16 09:17:03;;;;;;;20.05;6.93;;;8.10;99.90;;;;;;20771877;28;20084;-79
2023/04/16 09:27:04;;;;;;;10.80;5.93;;;7.80;99.90;;;;;;20770906;28;20026;-80
2023/04/16 09:37:17;;;;;;;;;;;7.90;99.90;;;;;;20772119;28;20026;-79
2023/04/16 09:47:18;;;;;;;16.63;5.50;;;8.40;99.90;;;;;;20776363;28;19909;-79
2023/04/16 09:57:23;;;;;;;10.10;5.35;;;8.40;99.90;;;;;;20757135;28;20068;-79
2023/04/16 10:07:28;;;;;;;8.02;5.43;;;8.20;99.90;;;;;;20774680;28;20125;-79
2023/04/16 10:17:30;;;;;;;8.32;5.95;;;8.20;99.90;;;;;;20753520;28;20515;-79
2023/04/16 10:27:31;;;;;;;10.02;6.32;;;8.10;99.90;;;;;;20761000;28;20504;-79
2023/04/16 10:37:32;;;;;;;8.48;5.93;;;8.30;99.90;;;;;;20762272;28;20128;-77
2023/04/16 10:47:39;;;;;;;10.07;5.45;;;8.20;99.90;;;;;;20766124;28;20401;-81
2023/04/16 10:57:39;;;;;;;9.23;5.55;;;8.40;99.90;;;;;;20773031;28;20125;-80
2023/04/16 11:07:46;;;;;;;8.13;5.17;;;8.10;99.90;;;;;;20773542;28;20030;-80
2023/04/16 11:17:51;;;;;;;12.15;6.00;;;7.90;99.90;;;;;;20779118;28;20291;-80
2023/04/16 11:27:53;;;;;;;9.82;6.70;;;7.90;99.90;;;;;;20793511;28;20621;-81
2023/04/16 11:37:57;;;;;;;11.55;6.40;;;7.80;99.90;;;;;;20813681;28;20030;-80
2023/04/16 11:47:58;;;;;;;15.05;7.15;;;7.90;99.90;;;;;;20782063;28;20076;-80
2023/04/16 11:58:11;;;;;;;11.57;6.93;;;7.80;99.90;;;;;;20748545;28;20485;-78
2023/04/16 12:08:29;;;;;;;12.45;7.18;;;8.00;99.90;;;;;;20758192;28;20288;-80
2023/04/16 12:18:30;;;;;;;11.32;6.65;;;8.10;99.90;;;;;;20765311;28;20083;-79
2023/04/16 12:28:31;;;;;;;14.35;7.45;;;8.10;99.90;;;;;;20744975;28;20432;-79
2023/04/16 12:38:32;;;;;;;15.73;7.82;;;8.00;99.90;;;;;;20763547;28;20042;-78
2023/04/16 12:48:33;;;;;;;18.67;9.47;;;7.90;99.90;;;;;;20771932;28;20026;-79
2023/04/16 12:58:34;;;;;;;10.05;6.40;;;8.00;99.90;;;;;;20768710;28;20292;-79
2023/04/16 13:08:36;;;;;;;16.10;5.57;;;8.20;99.90;;;;;;20782354;28;20076;-79
2023/04/16 13:18:37;;;;;;;7.82;5.55;;;8.20;99.90;;;;;;20788732;28;20367;-79
2023/04/16 13:28:37;;;;;;;8.87;5.40;;;8.20;99.90;;;;;;20780213;28;20032;-79
2023/04/16 13:38:38;;;;;;;10.37;5.03;;;8.30;99.90;;;;;;20788237;28;20292;-80
2023/04/16 13:48:39;;;;;;;7.13;4.60;;;8.40;99.90;;;;;;20788428;28;20040;-79
2023/04/16 13:58:40;;;;;;;6.47;4.40;;;8.50;99.90;;;;;;20784204;28;20046;-79
2023/04/16 14:08:41;;;;;;;;;;;8.60;99.90;;;;;;20771894;28;20382;-80
2023/04/16 14:18:42;;;;;;;6.40;3.80;;;9.20;99.90;;;;;;20773087;28;19952;-79
2023/04/16 14:28:43;;;;;;;5.10;3.27;;;9.40;99.90;;;;;;20797306;28;20536;-79
2023/04/16 14:38:45;;;;;;;7.18;4.38;;;9.60;99.90;;;;;;20772963;28;20408;-80
2023/04/16 14:48:46;;;;;;;8.10;4.03;;;9.60;99.90;;;;;;20778247;28;20030;-80
2023/04/16 14:58:47;;;;;;;5.63;3.60;;;9.40;99.90;;;;;;20779915;28;20440;-80
2023/04/16 15:08:48;;;;;;;6.53;3.70;;;9.70;99.90;;;;;;20770886;28;20076;-80
2023/04/16 15:18:49;;;;;;;5.33;3.63;;;10.10;99.90;;;;;;20767647;28;20049;-80
2023/04/16 15:28:50;;;;;;;5.78;3.35;;;10.20;99.90;;;;;;20770513;28;20447;-79
2023/04/16 15:38:51;;;;;;;6.83;3.63;;;10.10;99.90;;;;;;20786193;28;20099;-80
2023/04/16 15:48:52;;;;;;;5.77;3.73;;;10.10;99.90;;;;;;20793272;28;20041;-80
2023/04/16 15:58:52;;;;;;;8.47;4.30;;;10.00;99.90;;;;;;20846017;28;20052;-79
2023/04/16 16:08:53;;;;;;;5.50;3.07;;;10.00;99.90;;;;;;20789619;28;20408;-80
2023/04/16 16:18:54;;;;;;;9.43;5.73;;;10.00;99.90;;;;;;20788020;28;20036;-81
2023/04/16 16:28:58;;;;;;;9.63;4.73;;;10.00;99.90;;;;;;20792440;28;20029;-80
2023/04/16 16:38:59;;;;;;;10.95;5.60;;;9.80;99.90;;;;;;20786770;28;20081;-81
2023/04/16 16:48:59;;;;;;;10.43;5.57;;;9.60;99.90;;;;;;20792194;28;20034;-81
2023/04/16 16:59:00;;;;;;;11.23;5.07;;;9.40;99.90;;;;;;20782892;28;20109;-79
2023/04/16 17:09:02;;;;;;;10.70;5.57;;;9.40;99.90;;;;;;20783795;28;20038;-80
2023/04/16 17:19:03;;;;;;;10.48;5.85;;;9.30;99.90;;;;;;20785836;28;20049;-80
2023/04/16 17:29:04;;;;;;;16.57;8.47;;;9.20;99.90;;;;;;20791765;28;20404;-80
2023/04/16 17:39:05;;;;;;;15.83;7.53;;;8.90;99.90;;;;;;20786387;28;20073;-79
2023/04/16 17:49:06;;;;;;;17.67;8.00;;;8.90;99.90;;;;;;20795586;28;20281;-80
2023/04/16 17:59:06;;;;;;;14.63;7.67;;;8.80;99.90;;;;;;20794585;28;20117;-82
2023/04/16 18:09:07;;;;;;;17.30;8.43;;;8.70;99.90;;;;;;20793918;28;20034;-82
2023/04/16 18:19:08;;;;;;;17.97;8.10;;;8.60;99.90;;;;;;20786720;28;20034;-79
2023/04/16 18:29:09;;;;;;;16.33;8.90;;;8.60;99.90;;;;;;20771167;28;20038;-77
2023/04/16 18:39:09;;;;;;;18.77;10.20;;;8.50;99.90;;;;;;20773553;28;20034;-79
2023/04/16 18:49:10;;;;;;;20.47;9.97;;;8.30;99.90;;;;;;20778056;28;20030;-78
2023/04/16 18:59:11;;;;;;;20.63;10.80;;;8.30;99.90;;;;;;20777663;28;20030;-78
2023/04/16 19:09:12;;;;;;;24.03;11.00;;;8.20;99.90;;;;;;20776293;28;20038;-79
2023/04/16 19:19:12;;;;;;;24.80;11.30;;;8.20;99.90;;;;;;20760248;28;20444;-78
2023/04/16 19:29:13;;;;;;;20.37;10.97;;;8.10;99.90;;;;;;20753995;28;20041;-79
2023/04/16 19:39:14;;;;;;;27.70;13.70;;;8.00;99.90;;;;;;20750290;28;20378;-78
2023/04/16 19:49:15;;;;;;;27.93;13.70;;;8.00;99.90;;;;;;20756528;28;20113;-78
2023/04/16 19:59:16;;;;;;;31.43;15.03;;;8.00;99.90;;;;;;20757460;28;20041;-78
2023/04/16 20:09:18;;;;;;;26.87;13.80;;;7.90;99.90;;;;;;20770791;28;20041;-79
2023/04/16 20:19:20;;;;;;;27.73;13.15;;;8.00;99.90;;;;;;20762948;28;20659;-81
2023/04/16 20:29:21;;;;;;;32.75;16.40;;;7.90;99.90;;;;;;20783715;28;20044;-80
2023/04/16 20:39:23;;;;;;;34.33;14.93;;;7.80;99.90;;;;;;20783344;28;20394;-81
2023/04/16 20:49:24;;;;;;;31.23;14.80;;;7.90;99.90;;;;;;20787161;28;20037;-79
2023/04/16 20:59:25;;;;;;;34.38;16.27;;;7.80;99.90;;;;;;20788629;28;20053;-79
2023/04/16 21:09:25;;;;;;;36.73;15.60;;;7.80;99.90;;;;;;20791787;28;20049;-80
2023/04/16 21:19:26;;;;;;;30.20;14.50;;;7.80;99.90;;;;;;20784480;28;20469;-79
2023/04/16 21:29:27;;;;;;;30.57;13.33;;;7.70;99.90;;;;;;20775522;28;20504;-80
2023/04/16 21:39:29;;;;;;;31.73;13.53;;;7.70;99.90;;;;;;20770920;28;20073;-79
2023/04/16 21:49:30;;;;;;;32.22;14.65;;;7.70;99.90;;;;;;20782632;28;20034;-80
2023/04/16 21:59:31;;;;;;;34.90;16.00;;;7.70;99.90;;;;;;20780947;28;20480;-79
2023/04/16 22:09:32;;;;;;;34.87;14.60;;;7.70;99.90;;;;;;20777807;28;20296;-80
2023/04/16 22:19:33;;;;;;;32.37;14.13;;;7.60;99.90;;;;;;20777238;28;20057;-79
2023/04/16 22:29:34;;;;;;;36.92;14.65;;;7.60;99.90;;;;;;20784479;28;20105;-79
2023/04/16 22:39:35;;;;;;;31.52;14.05;;;7.60;99.90;;;;;;20783884;28;20086;-79
2023/04/16 22:49:36;;;;;;;36.78;15.20;;;7.60;99.90;;;;;;20783402;28;20436;-79
2023/04/16 22:59:37;;;;;;;41.30;15.80;;;7.60;99.90;;;;;;20787778;28;20241;-78
2023/04/16 23:09:37;;;;;;;40.50;15.73;;;7.60;99.90;;;;;;20775042;28;20580;-77
2023/04/16 23:19:38;;;;;;;31.60;14.60;;;7.60;99.90;;;;;;20776373;28;20022;-78
2023/04/16 23:29:39;;;;;;;32.23;15.13;;;7.60;99.90;;;;;;20773357;28;20041;-79
2023/04/16 23:39:40;;;;;;;32.67;13.60;;;7.60;99.90;;;;;;20765289;28;20040;-78
2023/04/16 23:49:41;;;;;;;34.60;16.07;;;7.60;99.90;;;;;;20761842;28;20309;-77
2023/04/16 23:59:41;;;;;;;36.70;15.07;;;7.60;99.90;;;;;;20774502;28;20034;-78
